sensor_id;sensor_type;location;lat;lon;timestamp;P1;durP1;ratioP1;P2;durP2;ratioP2
36475;SDS011;56615;42.682;23.364;2023-03-01T00:01:06;7.63;;;4.30;;
36475;SDS011;56615;42.682;23.364;2023-03-01T00:03:33;7.95;;;4.05;;
36475;SDS011;56615;42.682;23.364;2023-03-01T00:05:59;6.60;;;3.97;;
36475;SDS011;56615;42.682;23.364;2023-03-01T00:08:25;7.05;;;3.80;;
36475;SDS011;56615;42.682;23.364;2023-03-01T00:11:01;6.25;;;3.63;;
36475;SDS011;56615;42.682;23.364;2023-03-01T00:13:33;5.50;;;3.50;;
36475;SDS011;56615;42.682;23.364;2023-03-01T00:16:01;4.68;;;2.83;;
36475;SDS011;56615;42.682;23.364;2023-03-01T00:18:31;4.60;;;3.10;;
36475;SDS011;56615;42.682;23.364;2023-03-01T00:20:57;5.68;;;3.45;;
36475;SDS011;56615;42.682;23.364;2023-03-01T00:23:22;6.13;;;3.58;;
36475;SDS011;56615;42.682;23.364;2023-03-01T00:25:48;6.70;;;3.80;;
36475;SDS011;56615;42.682;23.364;2023-03-01T00:28:14;6.25;;;4.00;;
36475;SDS011;56615;42.682;23.364;2023-03-01T00:30:41;6.32;;;4.00;;
36475;SDS011;56615;42.682;23.364;2023-03-01T00:33:06;7.50;;;4.45;;
36475;SDS011;56615;42.682;23.364;2023-03-01T00:35:33;7.13;;;4.22;;
36475;SDS011;56615;42.682;23.364;2023-03-01T00:37:58;6.43;;;3.90;;
36475;SDS011;56615;42.682;23.364;2023-03-01T00:40:24;6.60;;;3.83;;
36475;SDS011;56615;42.682;23.364;2023-03-01T00:42:50;6.07;;;3.47;;
36475;SDS011;56615;42.682;23.364;2023-03-01T00:45:18;6.40;;;3.80;;
36475;SDS011;56615;42.682;23.364;2023-03-01T00:47:44;7.38;;;3.78;;
36475;SDS011;56615;42.682;23.364;2023-03-01T00:50:09;6.18;;;3.90;;
36475;SDS011;56615;42.682;23.364;2023-03-01T00:52:36;5.38;;;3.53;;
36475;SDS011;56615;42.682;23.364;2023-03-01T00:55:01;6.28;;;3.80;;
36475;SDS011;56615;42.682;23.364;2023-03-01T00:57:27;6.68;;;3.67;;
36475;SDS011;56615;42.682;23.364;2023-03-01T00:59:52;6.82;;;4.30;;
36475;SDS011;56615;42.682;23.364;2023-03-01T01:02:18;6.90;;;4.00;;
36475;SDS011;56615;42.682;23.364;2023-03-01T01:04:50;5.43;;;3.53;;
36475;SDS011;56615;42.682;23.364;2023-03-01T01:07:16;7.13;;;4.15;;
36475;SDS011;56615;42.682;23.364;2023-03-01T01:09:42;6.47;;;3.75;;
36475;SDS011;56615;42.682;23.364;2023-03-01T01:12:08;6.47;;;3.97;;
36475;SDS011;56615;42.682;23.364;2023-03-01T01:14:34;6.97;;;4.28;;
36475;SDS011;56615;42.682;23.364;2023-03-01T01:16:59;6.95;;;4.20;;
36475;SDS011;56615;42.682;23.364;2023-03-01T01:19:25;8.07;;;4.05;;
36475;SDS011;56615;42.682;23.364;2023-03-01T01:21:51;6.05;;;3.95;;
36475;SDS011;56615;42.682;23.364;2023-03-01T01:24:16;5.63;;;3.30;;
36475;SDS011;56615;42.682;23.364;2023-03-01T01:26:42;6.45;;;3.60;;
36475;SDS011;56615;42.682;23.364;2023-03-01T01:29:08;7.28;;;3.63;;
36475;SDS011;56615;42.682;23.364;2023-03-01T01:31:34;6.40;;;3.83;;
36475;SDS011;56615;42.682;23.364;2023-03-01T01:34:01;7.43;;;3.65;;
36475;SDS011;56615;42.682;23.364;2023-03-01T01:36:28;7.82;;;4.03;;
36475;SDS011;56615;42.682;23.364;2023-03-01T01:38:53;4.72;;;3.25;;
36475;SDS011;56615;42.682;23.364;2023-03-01T01:41:22;5.18;;;3.53;;
36475;SDS011;56615;42.682;23.364;2023-03-01T01:44:08;4.90;;;3.33;;
36475;SDS011;56615;42.682;23.364;2023-03-01T01:46:35;3.90;;;2.92;;
36475;SDS011;56615;42.682;23.364;2023-03-01T01:49:24;3.28;;;2.63;;
36475;SDS011;56615;42.682;23.364;2023-03-01T01:51:58;3.13;;;2.47;;
36475;SDS011;56615;42.682;23.364;2023-03-01T01:57:38;3.22;;;2.42;;
36475;SDS011;56615;42.682;23.364;2023-03-01T02:00:06;2.47;;;2.28;;
36475;SDS011;56615;42.682;23.364;2023-03-01T02:02:39;3.17;;;2.40;;
36475;SDS011;56615;42.682;23.364;2023-03-01T02:07:42;3.60;;;2.85;;
36475;SDS011;56615;42.682;23.364;2023-03-01T02:10:07;3.50;;;2.75;;
36475;SDS011;56615;42.682;23.364;2023-03-01T02:12:33;4.65;;;2.97;;
36475;SDS011;56615;42.682;23.364;2023-03-01T02:14:59;5.28;;;3.00;;
36475;SDS011;56615;42.682;23.364;2023-03-01T02:17:25;4.70;;;3.25;;
36475;SDS011;56615;42.682;23.364;2023-03-01T02:19:59;4.13;;;3.13;;
36475;SDS011;56615;42.682;23.364;2023-03-01T02:22:32;4.25;;;3.25;;
36475;SDS011;56615;42.682;23.364;2023-03-01T02:25:41;4.10;;;3.03;;
36475;SDS011;56615;42.682;23.364;2023-03-01T02:30:44;4.20;;;3.17;;
36475;SDS011;56615;42.682;23.364;2023-03-01T02:33:29;5.53;;;3.13;;
36475;SDS011;56615;42.682;23.364;2023-03-01T02:35:58;4.53;;;3.28;;
36475;SDS011;56615;42.682;23.364;2023-03-01T02:38:25;7.07;;;3.63;;
36475;SDS011;56615;42.682;23.364;2023-03-01T02:40:50;5.53;;;3.50;;
36475;SDS011;56615;42.682;23.364;2023-03-01T02:43:16;4.97;;;3.47;;
36475;SDS011;56615;42.682;23.364;2023-03-01T02:45:48;6.32;;;3.30;;
36475;SDS011;56615;42.682;23.364;2023-03-01T02:48:17;4.53;;;3.00;;
36475;SDS011;56615;42.682;23.364;2023-03-01T02:53:33;4.97;;;3.20;;
36475;SDS011;56615;42.682;23.364;2023-03-01T02:56:04;4.97;;;3.22;;
36475;SDS011;56615;42.682;23.364;2023-03-01T02:58:30;4.47;;;2.97;;
36475;SDS011;56615;42.682;23.364;2023-03-01T03:00:55;5.10;;;2.90;;
36475;SDS011;56615;42.682;23.364;2023-03-01T03:03:21;5.32;;;2.80;;
36475;SDS011;56615;42.682;23.364;2023-03-01T03:05:47;3.45;;;2.55;;
36475;SDS011;56615;42.682;23.364;2023-03-01T03:08:13;4.45;;;2.90;;
36475;SDS011;56615;42.682;23.364;2023-03-01T03:10:41;5.68;;;2.85;;
36475;SDS011;56615;42.682;23.364;2023-03-01T03:13:12;4.15;;;2.67;;
36475;SDS011;56615;42.682;23.364;2023-03-01T03:15:38;5.45;;;2.83;;
36475;SDS011;56615;42.682;23.364;2023-03-01T03:18:06;5.25;;;3.03;;
36475;SDS011;56615;42.682;23.364;2023-03-01T03:20:35;3.97;;;2.90;;
36475;SDS011;56615;42.682;23.364;2023-03-01T03:23:03;4.20;;;2.80;;
36475;SDS011;56615;42.682;23.364;2023-03-01T03:25:29;5.00;;;3.20;;
36475;SDS011;56615;42.682;23.364;2023-03-01T03:27:55;5.47;;;3.20;;
36475;SDS011;56615;42.682;23.364;2023-03-01T03:30:26;4.43;;;3.03;;
36475;SDS011;56615;42.682;23.364;2023-03-01T03:32:58;5.72;;;3.50;;
36475;SDS011;56615;42.682;23.364;2023-03-01T03:35:25;3.92;;;3.03;;
36475;SDS011;56615;42.682;23.364;2023-03-01T03:37:57;4.72;;;3.15;;
36475;SDS011;56615;42.682;23.364;2023-03-01T03:40:40;4.53;;;3.20;;
36475;SDS011;56615;42.682;23.364;2023-03-01T03:43:10;5.40;;;3.30;;
36475;SDS011;56615;42.682;23.364;2023-03-01T03:45:55;5.07;;;3.38;;
36475;SDS011;56615;42.682;23.364;2023-03-01T03:48:40;3.80;;;2.88;;
36475;SDS011;56615;42.682;23.364;2023-03-01T03:51:09;4.93;;;3.28;;
36475;SDS011;56615;42.682;23.364;2023-03-01T03:53:35;5.10;;;3.38;;
36475;SDS011;56615;42.682;23.364;2023-03-01T03:56:00;5.32;;;3.60;;
36475;SDS011;56615;42.682;23.364;2023-03-01T03:58:26;5.78;;;3.55;;
36475;SDS011;56615;42.682;23.364;2023-03-01T04:00:53;5.43;;;3.47;;
36475;SDS011;56615;42.682;23.364;2023-03-01T04:03:21;5.47;;;3.55;;
36475;SDS011;56615;42.682;23.364;2023-03-01T04:05:47;5.78;;;3.15;;
36475;SDS011;56615;42.682;23.364;2023-03-01T04:08:15;5.57;;;3.60;;
36475;SDS011;56615;42.682;23.364;2023-03-01T04:10:42;6.75;;;4.00;;
36475;SDS011;56615;42.682;23.364;2023-03-01T04:13:10;7.63;;;3.60;;
36475;SDS011;56615;42.682;23.364;2023-03-01T04:15:37;5.68;;;3.38;;
36475;SDS011;56615;42.682;23.364;2023-03-01T04:18:02;5.50;;;3.30;;
36475;SDS011;56615;42.682;23.364;2023-03-01T04:20:30;5.85;;;3.20;;
36475;SDS011;56615;42.682;23.364;2023-03-01T04:22:59;6.10;;;3.25;;
36475;SDS011;56615;42.682;23.364;2023-03-01T04:25:40;5.20;;;2.95;;
36475;SDS011;56615;42.682;23.364;2023-03-01T04:28:06;5.30;;;3.28;;
36475;SDS011;56615;42.682;23.364;2023-03-01T04:30:33;5.35;;;3.20;;
36475;SDS011;56615;42.682;23.364;2023-03-01T04:33:09;5.40;;;3.35;;
36475;SDS011;56615;42.682;23.364;2023-03-01T04:35:36;5.85;;;3.40;;
36475;SDS011;56615;42.682;23.364;2023-03-01T04:38:02;5.75;;;3.13;;
36475;SDS011;56615;42.682;23.364;2023-03-01T04:40:28;5.30;;;2.97;;
36475;SDS011;56615;42.682;23.364;2023-03-01T04:42:54;5.65;;;2.92;;
36475;SDS011;56615;42.682;23.364;2023-03-01T04:45:19;5.28;;;3.05;;
36475;SDS011;56615;42.682;23.364;2023-03-01T04:47:46;7.28;;;3.85;;
36475;SDS011;56615;42.682;23.364;2023-03-01T04:50:12;6.80;;;3.20;;
36475;SDS011;56615;42.682;23.364;2023-03-01T04:52:42;7.45;;;4.28;;
36475;SDS011;56615;42.682;23.364;2023-03-01T04:55:08;7.63;;;4.13;;
36475;SDS011;56615;42.682;23.364;2023-03-01T04:57:36;8.77;;;4.35;;
36475;SDS011;56615;42.682;23.364;2023-03-01T05:00:02;7.90;;;4.47;;
36475;SDS011;56615;42.682;23.364;2023-03-01T05:02:44;8.60;;;4.57;;
36475;SDS011;56615;42.682;23.364;2023-03-01T05:05:13;7.13;;;4.35;;
36475;SDS011;56615;42.682;23.364;2023-03-01T05:07:39;9.52;;;4.30;;
36475;SDS011;56615;42.682;23.364;2023-03-01T05:10:04;7.03;;;4.30;;
36475;SDS011;56615;42.682;23.364;2023-03-01T05:12:31;9.02;;;4.65;;
36475;SDS011;56615;42.682;23.364;2023-03-01T05:14:56;8.93;;;5.07;;
36475;SDS011;56615;42.682;23.364;2023-03-01T05:17:23;8.88;;;5.10;;
36475;SDS011;56615;42.682;23.364;2023-03-01T05:19:49;10.80;;;5.80;;
36475;SDS011;56615;42.682;23.364;2023-03-01T05:22:14;13.35;;;7.07;;
36475;SDS011;56615;42.682;23.364;2023-03-01T05:24:39;11.15;;;5.95;;
36475;SDS011;56615;42.682;23.364;2023-03-01T05:27:05;10.85;;;5.25;;
36475;SDS011;56615;42.682;23.364;2023-03-01T05:29:31;8.63;;;5.15;;
36475;SDS011;56615;42.682;23.364;2023-03-01T05:32:00;10.75;;;5.40;;
36475;SDS011;56615;42.682;23.364;2023-03-01T05:34:31;10.85;;;5.35;;
36475;SDS011;56615;42.682;23.364;2023-03-01T05:36:59;9.45;;;5.05;;
36475;SDS011;56615;42.682;23.364;2023-03-01T05:39:26;9.48;;;5.10;;
36475;SDS011;56615;42.682;23.364;2023-03-01T05:41:56;7.80;;;4.60;;
36475;SDS011;56615;42.682;23.364;2023-03-01T05:44:23;7.70;;;4.60;;
36475;SDS011;56615;42.682;23.364;2023-03-01T05:46:48;9.15;;;4.88;;
36475;SDS011;56615;42.682;23.364;2023-03-01T05:49:14;9.55;;;5.53;;
36475;SDS011;56615;42.682;23.364;2023-03-01T05:51:40;8.95;;;5.10;;
36475;SDS011;56615;42.682;23.364;2023-03-01T05:54:06;8.75;;;4.60;;
36475;SDS011;56615;42.682;23.364;2023-03-01T05:56:33;7.93;;;4.95;;
36475;SDS011;56615;42.682;23.364;2023-03-01T05:58:59;7.72;;;4.78;;
36475;SDS011;56615;42.682;23.364;2023-03-01T06:01:25;9.77;;;5.80;;
36475;SDS011;56615;42.682;23.364;2023-03-01T06:03:52;10.02;;;5.70;;
36475;SDS011;56615;42.682;23.364;2023-03-01T06:06:18;9.80;;;5.57;;
36475;SDS011;56615;42.682;23.364;2023-03-01T06:08:44;11.00;;;5.65;;
36475;SDS011;56615;42.682;23.364;2023-03-01T06:11:09;9.93;;;5.20;;
36475;SDS011;56615;42.682;23.364;2023-03-01T06:13:34;9.88;;;4.75;;
36475;SDS011;56615;42.682;23.364;2023-03-01T06:16:00;9.63;;;4.68;;
36475;SDS011;56615;42.682;23.364;2023-03-01T06:18:25;9.40;;;5.70;;
36475;SDS011;56615;42.682;23.364;2023-03-01T06:20:54;11.02;;;6.88;;
36475;SDS011;56615;42.682;23.364;2023-03-01T06:23:20;10.13;;;6.45;;
36475;SDS011;56615;42.682;23.364;2023-03-01T06:25:47;9.60;;;6.47;;
36475;SDS011;56615;42.682;23.364;2023-03-01T06:28:13;9.75;;;6.57;;
36475;SDS011;56615;42.682;23.364;2023-03-01T06:30:38;9.50;;;5.78;;
36475;SDS011;56615;42.682;23.364;2023-03-01T06:33:04;9.45;;;5.40;;
36475;SDS011;56615;42.682;23.364;2023-03-01T06:35:29;9.18;;;5.25;;
36475;SDS011;56615;42.682;23.364;2023-03-01T06:37:56;10.70;;;4.68;;
36475;SDS011;56615;42.682;23.364;2023-03-01T06:40:22;8.10;;;4.30;;
36475;SDS011;56615;42.682;23.364;2023-03-01T06:42:48;7.70;;;4.13;;
36475;SDS011;56615;42.682;23.364;2023-03-01T06:45:14;5.70;;;3.47;;
36475;SDS011;56615;42.682;23.364;2023-03-01T06:47:40;6.00;;;3.47;;
36475;SDS011;56615;42.682;23.364;2023-03-01T06:50:06;5.35;;;3.47;;
36475;SDS011;56615;42.682;23.364;2023-03-01T06:52:31;6.32;;;3.58;;
36475;SDS011;56615;42.682;23.364;2023-03-01T06:54:58;8.65;;;3.83;;
36475;SDS011;56615;42.682;23.364;2023-03-01T06:57:23;5.20;;;3.03;;
36475;SDS011;56615;42.682;23.364;2023-03-01T06:59:48;5.72;;;3.67;;
36475;SDS011;56615;42.682;23.364;2023-03-01T07:02:14;8.05;;;3.30;;
36475;SDS011;56615;42.682;23.364;2023-03-01T07:04:40;5.45;;;3.13;;
36475;SDS011;56615;42.682;23.364;2023-03-01T07:07:06;7.43;;;3.13;;
36475;SDS011;56615;42.682;23.364;2023-03-01T07:09:32;7.13;;;3.63;;
36475;SDS011;56615;42.682;23.364;2023-03-01T07:11:58;6.65;;;2.80;;
36475;SDS011;56615;42.682;23.364;2023-03-01T07:14:23;6.85;;;3.47;;
36475;SDS011;56615;42.682;23.364;2023-03-01T07:16:52;6.72;;;3.72;;
36475;SDS011;56615;42.682;23.364;2023-03-01T07:19:18;4.82;;;3.00;;
36475;SDS011;56615;42.682;23.364;2023-03-01T07:21:44;7.13;;;3.40;;
36475;SDS011;56615;42.682;23.364;2023-03-01T07:24:10;6.15;;;3.30;;
36475;SDS011;56615;42.682;23.364;2023-03-01T07:26:35;5.75;;;3.00;;
36475;SDS011;56615;42.682;23.364;2023-03-01T07:29:04;6.68;;;3.33;;
36475;SDS011;56615;42.682;23.364;2023-03-01T07:31:31;7.47;;;3.40;;
36475;SDS011;56615;42.682;23.364;2023-03-01T07:33:56;6.97;;;3.10;;
36475;SDS011;56615;42.682;23.364;2023-03-01T07:36:22;7.53;;;3.58;;
36475;SDS011;56615;42.682;23.364;2023-03-01T07:38:47;6.13;;;3.25;;
36475;SDS011;56615;42.682;23.364;2023-03-01T07:41:13;5.75;;;2.85;;
36475;SDS011;56615;42.682;23.364;2023-03-01T07:43:39;5.57;;;2.75;;
36475;SDS011;56615;42.682;23.364;2023-03-01T07:46:04;6.18;;;3.10;;
36475;SDS011;56615;42.682;23.364;2023-03-01T07:48:30;6.15;;;3.20;;
36475;SDS011;56615;42.682;23.364;2023-03-01T07:51:03;7.25;;;3.30;;
36475;SDS011;56615;42.682;23.364;2023-03-01T07:53:30;7.47;;;3.00;;
36475;SDS011;56615;42.682;23.364;2023-03-01T07:56:03;7.53;;;3.40;;
36475;SDS011;56615;42.682;23.364;2023-03-01T07:58:29;7.05;;;3.08;;
36475;SDS011;56615;42.682;23.364;2023-03-01T08:00:55;7.40;;;3.25;;
36475;SDS011;56615;42.682;23.364;2023-03-01T08:03:20;7.82;;;3.30;;
36475;SDS011;56615;42.682;23.364;2023-03-01T08:05:46;7.85;;;3.40;;
36475;SDS011;56615;42.682;23.364;2023-03-01T08:08:11;10.65;;;3.47;;
36475;SDS011;56615;42.682;23.364;2023-03-01T08:10:36;8.38;;;3.78;;
36475;SDS011;56615;42.682;23.364;2023-03-01T08:13:02;7.68;;;3.50;;
36475;SDS011;56615;42.682;23.364;2023-03-01T08:15:27;4.93;;;2.67;;
36475;SDS011;56615;42.682;23.364;2023-03-01T08:17:53;4.45;;;2.50;;
36475;SDS011;56615;42.682;23.364;2023-03-01T08:20:18;5.43;;;2.55;;
36475;SDS011;56615;42.682;23.364;2023-03-01T08:22:44;4.32;;;2.65;;
36475;SDS011;56615;42.682;23.364;2023-03-01T08:25:10;10.52;;;3.45;;
36475;SDS011;56615;42.682;23.364;2023-03-01T08:27:35;4.93;;;2.92;;
36475;SDS011;56615;42.682;23.364;2023-03-01T08:30:01;5.00;;;2.65;;
36475;SDS011;56615;42.682;23.364;2023-03-01T08:32:26;6.15;;;2.67;;
36475;SDS011;56615;42.682;23.364;2023-03-01T08:34:51;5.40;;;2.70;;
36475;SDS011;56615;42.682;23.364;2023-03-01T08:37:17;3.95;;;2.70;;
36475;SDS011;56615;42.682;23.364;2023-03-01T08:39:42;5.80;;;3.00;;
36475;SDS011;56615;42.682;23.364;2023-03-01T08:42:08;5.63;;;3.22;;
36475;SDS011;56615;42.682;23.364;2023-03-01T08:44:33;8.05;;;3.58;;
36475;SDS011;56615;42.682;23.364;2023-03-01T08:47:00;4.25;;;2.88;;
36475;SDS011;56615;42.682;23.364;2023-03-01T08:49:27;4.00;;;2.80;;
36475;SDS011;56615;42.682;23.364;2023-03-01T08:51:52;3.38;;;2.80;;
36475;SDS011;56615;42.682;23.364;2023-03-01T08:54:19;5.57;;;3.30;;
36475;SDS011;56615;42.682;23.364;2023-03-01T08:56:45;5.20;;;3.05;;
36475;SDS011;56615;42.682;23.364;2023-03-01T08:59:11;4.88;;;3.30;;
36475;SDS011;56615;42.682;23.364;2023-03-01T09:01:37;4.57;;;2.65;;
36475;SDS011;56615;42.682;23.364;2023-03-01T09:04:03;4.22;;;2.65;;
36475;SDS011;56615;42.682;23.364;2023-03-01T09:06:32;4.05;;;2.60;;
36475;SDS011;56615;42.682;23.364;2023-03-01T09:08:58;5.10;;;3.00;;
36475;SDS011;56615;42.682;23.364;2023-03-01T09:11:23;3.72;;;2.70;;
36475;SDS011;56615;42.682;23.364;2023-03-01T09:13:49;5.50;;;2.80;;
36475;SDS011;56615;42.682;23.364;2023-03-01T09:16:15;4.00;;;2.50;;
36475;SDS011;56615;42.682;23.364;2023-03-01T09:18:42;3.17;;;2.20;;
36475;SDS011;56615;42.682;23.364;2023-03-01T09:21:09;3.92;;;2.40;;
36475;SDS011;56615;42.682;23.364;2023-03-01T09:23:38;3.92;;;2.33;;
36475;SDS011;56615;42.682;23.364;2023-03-01T09:26:05;4.38;;;2.70;;
36475;SDS011;56615;42.682;23.364;2023-03-01T09:28:31;6.38;;;3.03;;
36475;SDS011;56615;42.682;23.364;2023-03-01T09:30:57;4.95;;;3.00;;
36475;SDS011;56615;42.682;23.364;2023-03-01T09:33:24;5.30;;;3.00;;
36475;SDS011;56615;42.682;23.364;2023-03-01T09:35:49;4.80;;;2.53;;
36475;SDS011;56615;42.682;23.364;2023-03-01T09:38:15;7.88;;;3.10;;
36475;SDS011;56615;42.682;23.364;2023-03-01T09:40:43;5.43;;;2.70;;
36475;SDS011;56615;42.682;23.364;2023-03-01T09:43:15;3.77;;;2.30;;
36475;SDS011;56615;42.682;23.364;2023-03-01T09:45:49;5.00;;;2.35;;
36475;SDS011;56615;42.682;23.364;2023-03-01T09:48:16;4.00;;;2.53;;
36475;SDS011;56615;42.682;23.364;2023-03-01T09:50:46;4.38;;;2.58;;
36475;SDS011;56615;42.682;23.364;2023-03-01T09:53:15;4.30;;;2.28;;
36475;SDS011;56615;42.682;23.364;2023-03-01T09:55:50;5.40;;;2.08;;
36475;SDS011;56615;42.682;23.364;2023-03-01T10:01:55;5.20;;;2.40;;
36475;SDS011;56615;42.682;23.364;2023-03-01T10:04:30;5.32;;;2.65;;
36475;SDS011;56615;42.682;23.364;2023-03-01T10:07:06;3.67;;;2.28;;
36475;SDS011;56615;42.682;23.364;2023-03-01T10:10:14;4.72;;;2.08;;
36475;SDS011;56615;42.682;23.364;2023-03-01T10:12:54;3.92;;;2.40;;
36475;SDS011;56615;42.682;23.364;2023-03-01T10:15:32;4.75;;;2.20;;
36475;SDS011;56615;42.682;23.364;2023-03-01T10:18:12;5.65;;;2.47;;
36475;SDS011;56615;42.682;23.364;2023-03-01T10:23:26;4.28;;;2.00;;
36475;SDS011;56615;42.682;23.364;2023-03-01T10:28:26;3.13;;;2.20;;
36475;SDS011;56615;42.682;23.364;2023-03-01T10:31:15;4.00;;;2.20;;
36475;SDS011;56615;42.682;23.364;2023-03-01T10:33:44;4.70;;;2.40;;
36475;SDS011;56615;42.682;23.364;2023-03-01T10:36:09;4.13;;;2.38;;
36475;SDS011;56615;42.682;23.364;2023-03-01T10:38:54;5.00;;;2.60;;
36475;SDS011;56615;42.682;23.364;2023-03-01T10:41:22;3.95;;;2.45;;
36475;SDS011;56615;42.682;23.364;2023-03-01T10:43:55;5.13;;;2.45;;
36475;SDS011;56615;42.682;23.364;2023-03-01T10:46:23;4.28;;;2.17;;
36475;SDS011;56615;42.682;23.364;2023-03-01T10:51:41;3.97;;;2.25;;
36475;SDS011;56615;42.682;23.364;2023-03-01T10:54:18;4.15;;;2.10;;
36475;SDS011;56615;42.682;23.364;2023-03-01T10:56:46;5.43;;;1.95;;
36475;SDS011;56615;42.682;23.364;2023-03-01T10:59:38;6.43;;;1.95;;
36475;SDS011;56615;42.682;23.364;2023-03-01T11:07:26;4.68;;;2.40;;
36475;SDS011;56615;42.682;23.364;2023-03-01T11:09:52;5.38;;;2.03;;
36475;SDS011;56615;42.682;23.364;2023-03-01T11:12:17;2.80;;;1.90;;
36475;SDS011;56615;42.682;23.364;2023-03-01T11:14:53;2.55;;;1.80;;
36475;SDS011;56615;42.682;23.364;2023-03-01T11:22:42;3.53;;;2.10;;
36475;SDS011;56615;42.682;23.364;2023-03-01T11:25:15;3.97;;;2.00;;
36475;SDS011;56615;42.682;23.364;2023-03-01T11:27:41;3.05;;;2.00;;
36475;SDS011;56615;42.682;23.364;2023-03-01T11:35:27;7.15;;;2.38;;
36475;SDS011;56615;42.682;23.364;2023-03-01T12:08:11;4.03;;;2.72;;
36475;SDS011;56615;42.682;23.364;2023-03-01T12:28:03;7.95;;;3.80;;
36475;SDS011;56615;42.682;23.364;2023-03-01T12:39:09;7.28;;;3.30;;
36475;SDS011;56615;42.682;23.364;2023-03-01T12:41:43;5.32;;;3.22;;
36475;SDS011;56615;42.682;23.364;2023-03-01T12:49:55;5.63;;;3.28;;
36475;SDS011;56615;42.682;23.364;2023-03-01T12:55:03;4.85;;;3.20;;
36475;SDS011;56615;42.682;23.364;2023-03-01T12:57:45;6.57;;;3.30;;
36475;SDS011;56615;42.682;23.364;2023-03-01T13:08:22;4.80;;;2.83;;
36475;SDS011;56615;42.682;23.364;2023-03-01T13:10:57;6.57;;;2.90;;
36475;SDS011;56615;42.682;23.364;2023-03-01T13:13:26;6.38;;;2.90;;
36475;SDS011;56615;42.682;23.364;2023-03-01T13:15:52;6.45;;;3.10;;
36475;SDS011;56615;42.682;23.364;2023-03-01T13:23:23;6.25;;;3.22;;
36475;SDS011;56615;42.682;23.364;2023-03-01T13:30:57;5.35;;;3.03;;
36475;SDS011;56615;42.682;23.364;2023-03-01T13:35:48;5.50;;;3.10;;
36475;SDS011;56615;42.682;23.364;2023-03-01T13:38:36;6.63;;;2.80;;
36475;SDS011;56615;42.682;23.364;2023-03-01T13:41:03;6.72;;;3.25;;
36475;SDS011;56615;42.682;23.364;2023-03-01T13:43:30;5.47;;;2.97;;
36475;SDS011;56615;42.682;23.364;2023-03-01T13:45:57;7.47;;;3.17;;
36475;SDS011;56615;42.682;23.364;2023-03-01T13:48:25;6.07;;;3.20;;
36475;SDS011;56615;42.682;23.364;2023-03-01T13:50:55;6.65;;;2.95;;
36475;SDS011;56615;42.682;23.364;2023-03-01T13:53:25;6.55;;;2.85;;
36475;SDS011;56615;42.682;23.364;2023-03-01T13:55:52;6.35;;;3.00;;
36475;SDS011;56615;42.682;23.364;2023-03-01T13:58:28;7.35;;;3.00;;
36475;SDS011;56615;42.682;23.364;2023-03-01T14:00:59;6.10;;;3.05;;
36475;SDS011;56615;42.682;23.364;2023-03-01T14:03:29;4.95;;;2.90;;
36475;SDS011;56615;42.682;23.364;2023-03-01T14:06:01;7.63;;;3.17;;
36475;SDS011;56615;42.682;23.364;2023-03-01T14:08:38;6.07;;;2.95;;
36475;SDS011;56615;42.682;23.364;2023-03-01T14:21:41;8.52;;;3.67;;
36475;SDS011;56615;42.682;23.364;2023-03-01T14:24:15;8.75;;;3.50;;
36475;SDS011;56615;42.682;23.364;2023-03-01T14:26:42;8.20;;;3.35;;
36475;SDS011;56615;42.682;23.364;2023-03-01T14:29:22;6.38;;;3.00;;
36475;SDS011;56615;42.682;23.364;2023-03-01T14:31:50;5.93;;;3.10;;
36475;SDS011;56615;42.682;23.364;2023-03-01T14:34:20;7.18;;;3.22;;
36475;SDS011;56615;42.682;23.364;2023-03-01T14:36:47;7.88;;;3.42;;
36475;SDS011;56615;42.682;23.364;2023-03-01T14:39:16;9.60;;;3.95;;
36475;SDS011;56615;42.682;23.364;2023-03-01T14:41:42;4.93;;;2.78;;
36475;SDS011;56615;42.682;23.364;2023-03-01T14:44:12;6.90;;;2.97;;
36475;SDS011;56615;42.682;23.364;2023-03-01T14:46:41;6.63;;;3.00;;
36475;SDS011;56615;42.682;23.364;2023-03-01T14:49:15;9.63;;;3.25;;
36475;SDS011;56615;42.682;23.364;2023-03-01T14:51:45;7.40;;;3.00;;
36475;SDS011;56615;42.682;23.364;2023-03-01T14:54:20;6.25;;;2.80;;
36475;SDS011;56615;42.682;23.364;2023-03-01T14:56:49;8.40;;;3.75;;
36475;SDS011;56615;42.682;23.364;2023-03-01T14:59:16;10.38;;;3.55;;
36475;SDS011;56615;42.682;23.364;2023-03-01T15:01:45;8.10;;;3.30;;
36475;SDS011;56615;42.682;23.364;2023-03-01T15:04:12;6.43;;;3.30;;
36475;SDS011;56615;42.682;23.364;2023-03-01T15:06:38;9.70;;;3.25;;
36475;SDS011;56615;42.682;23.364;2023-03-01T15:09:04;8.55;;;3.10;;
36475;SDS011;56615;42.682;23.364;2023-03-01T15:11:30;7.93;;;3.38;;
36475;SDS011;56615;42.682;23.364;2023-03-01T15:13:57;8.60;;;3.30;;
36475;SDS011;56615;42.682;23.364;2023-03-01T15:16:42;7.43;;;3.00;;
36475;SDS011;56615;42.682;23.364;2023-03-01T15:19:15;6.85;;;3.10;;
36475;SDS011;56615;42.682;23.364;2023-03-01T15:21:41;8.73;;;3.40;;
36475;SDS011;56615;42.682;23.364;2023-03-01T15:29:26;8.32;;;3.67;;
36475;SDS011;56615;42.682;23.364;2023-03-01T15:31:59;7.45;;;3.40;;
36475;SDS011;56615;42.682;23.364;2023-03-01T15:34:37;7.40;;;3.40;;
36475;SDS011;56615;42.682;23.364;2023-03-01T15:37:04;7.20;;;3.53;;
36475;SDS011;56615;42.682;23.364;2023-03-01T15:42:03;7.50;;;3.30;;
36475;SDS011;56615;42.682;23.364;2023-03-01T15:44:41;7.10;;;3.10;;
36475;SDS011;56615;42.682;23.364;2023-03-01T15:47:23;7.95;;;3.30;;
36475;SDS011;56615;42.682;23.364;2023-03-01T15:49:53;8.93;;;3.85;;
36475;SDS011;56615;42.682;23.364;2023-03-01T15:55:05;9.05;;;3.50;;
36475;SDS011;56615;42.682;23.364;2023-03-01T15:57:39;9.65;;;3.70;;
36475;SDS011;56615;42.682;23.364;2023-03-01T16:00:05;7.30;;;3.50;;
36475;SDS011;56615;42.682;23.364;2023-03-01T16:02:36;7.25;;;3.40;;
36475;SDS011;56615;42.682;23.364;2023-03-01T16:05:02;7.53;;;3.35;;
36475;SDS011;56615;42.682;23.364;2023-03-01T16:07:28;9.35;;;3.60;;
36475;SDS011;56615;42.682;23.364;2023-03-01T16:09:53;8.75;;;3.60;;
36475;SDS011;56615;42.682;23.364;2023-03-01T16:12:19;8.90;;;4.10;;
36475;SDS011;56615;42.682;23.364;2023-03-01T16:14:46;10.65;;;4.15;;
36475;SDS011;56615;42.682;23.364;2023-03-01T16:17:13;9.57;;;4.43;;
36475;SDS011;56615;42.682;23.364;2023-03-01T16:19:40;8.27;;;3.90;;
36475;SDS011;56615;42.682;23.364;2023-03-01T16:22:06;9.70;;;4.22;;
36475;SDS011;56615;42.682;23.364;2023-03-01T16:24:31;8.55;;;3.78;;
36475;SDS011;56615;42.682;23.364;2023-03-01T16:26:57;10.65;;;4.80;;
36475;SDS011;56615;42.682;23.364;2023-03-01T16:29:22;12.05;;;4.35;;
36475;SDS011;56615;42.682;23.364;2023-03-01T16:31:48;8.65;;;4.38;;
36475;SDS011;56615;42.682;23.364;2023-03-01T16:34:13;13.98;;;6.35;;
36475;SDS011;56615;42.682;23.364;2023-03-01T16:36:39;11.63;;;4.43;;
36475;SDS011;56615;42.682;23.364;2023-03-01T16:39:04;16.33;;;7.20;;
36475;SDS011;56615;42.682;23.364;2023-03-01T16:41:29;11.90;;;5.57;;
36475;SDS011;56615;42.682;23.364;2023-03-01T16:43:55;12.02;;;5.22;;
36475;SDS011;56615;42.682;23.364;2023-03-01T16:46:27;19.38;;;10.00;;
36475;SDS011;56615;42.682;23.364;2023-03-01T16:48:53;14.05;;;7.45;;
36475;SDS011;56615;42.682;23.364;2023-03-01T16:51:20;15.40;;;9.63;;
36475;SDS011;56615;42.682;23.364;2023-03-01T16:53:47;10.00;;;5.20;;
36475;SDS011;56615;42.682;23.364;2023-03-01T16:56:12;13.25;;;5.47;;
36475;SDS011;56615;42.682;23.364;2023-03-01T16:58:38;11.48;;;5.53;;
36475;SDS011;56615;42.682;23.364;2023-03-01T17:01:06;11.32;;;5.30;;
36475;SDS011;56615;42.682;23.364;2023-03-01T17:03:33;11.45;;;5.68;;
36475;SDS011;56615;42.682;23.364;2023-03-01T17:06:02;13.32;;;6.85;;